sensor_id;sensor_type;location;lat;lon;timestamp;temperature;humidity
7254;DHT22;4060;49.186;9.226;2023-06-22T00:00:44;28.80;48.20
7254;DHT22;4060;49.186;9.226;2023-06-22T00:03:15;28.70;48.20
7254;DHT22;4060;49.186;9.226;2023-06-22T00:05:45;28.70;48.30
7254;DHT22;4060;49.186;9.226;2023-06-22T00:08:15;28.70;48.30
7254;DHT22;4060;49.186;9.226;2023-06-22T00:10:47;28.60;48.40
7254;DHT22;4060;49.186;9.226;2023-06-22T00:13:17;28.70;48.50
7254;DHT22;4060;49.186;9.226;2023-06-22T00:15:46;28.60;48.60
7254;DHT22;4060;49.186;9.226;2023-06-22T00:18:16;28.60;48.50
7254;DHT22;4060;49.186;9.226;2023-06-22T00:20:45;28.60;49.20
7254;DHT22;4060;49.186;9.226;2023-06-22T00:23:14;28.60;48.80
7254;DHT22;4060;49.186;9.226;2023-06-22T00:25:46;28.50;48.80
7254;DHT22;4060;49.186;9.226;2023-06-22T00:28:16;28.50;48.90
7254;DHT22;4060;49.186;9.226;2023-06-22T00:30:45;28.50;49.00
7254;DHT22;4060;49.186;9.226;2023-06-22T00:33:15;28.50;49.10
7254;DHT22;4060;49.186;9.226;2023-06-22T00:35:44;28.50;49.20
7254;DHT22;4060;49.186;9.226;2023-06-22T00:38:13;28.50;49.30
7254;DHT22;4060;49.186;9.226;2023-06-22T00:40:43;28.50;49.40
7254;DHT22;4060;49.186;9.226;2023-06-22T00:43:14;28.40;49.50
7254;DHT22;4060;49.186;9.226;2023-06-22T00:45:44;28.40;49.60
7254;DHT22;4060;49.186;9.226;2023-06-22T00:48:14;28.40;49.70
7254;DHT22;4060;49.186;9.226;2023-06-22T00:50:44;28.40;49.80
7254;DHT22;4060;49.186;9.226;2023-06-22T00:53:15;28.30;49.90
7254;DHT22;4060;49.186;9.226;2023-06-22T00:55:45;28.30;50.00
7254;DHT22;4060;49.186;9.226;2023-06-22T00:58:16;28.30;50.60
7254;DHT22;4060;49.186;9.226;2023-06-22T01:00:49;28.30;50.20
7254;DHT22;4060;49.186;9.226;2023-06-22T01:03:18;28.30;50.20
7254;DHT22;4060;49.186;9.226;2023-06-22T01:05:50;28.30;50.40
7254;DHT22;4060;49.186;9.226;2023-06-22T01:08:31;28.20;50.40
7254;DHT22;4060;49.186;9.226;2023-06-22T01:11:04;28.20;50.60
7254;DHT22;4060;49.186;9.226;2023-06-22T01:13:41;28.20;50.70
7254;DHT22;4060;49.186;9.226;2023-06-22T01:16:16;28.20;50.80
7254;DHT22;4060;49.186;9.226;2023-06-22T01:18:49;28.20;50.90
7254;DHT22;4060;49.186;9.226;2023-06-22T01:21:21;28.10;50.80
7254;DHT22;4060;49.186;9.226;2023-06-22T01:24:09;28.10;50.90
7254;DHT22;4060;49.186;9.226;2023-06-22T01:27:08;28.10;51.10
7254;DHT22;4060;49.186;9.226;2023-06-22T01:29:43;28.10;51.10
7254;DHT22;4060;49.186;9.226;2023-06-22T01:32:13;28.10;51.10
7254;DHT22;4060;49.186;9.226;2023-06-22T01:34:42;28.10;51.80
7254;DHT22;4060;49.186;9.226;2023-06-22T01:37:14;28.00;51.30
7254;DHT22;4060;49.186;9.226;2023-06-22T01:39:44;28.00;51.30
7254;DHT22;4060;49.186;9.226;2023-06-22T01:42:14;28.00;51.30
7254;DHT22;4060;49.186;9.226;2023-06-22T01:44:46;28.00;51.30
7254;DHT22;4060;49.186;9.226;2023-06-22T01:47:16;28.00;51.30
7254;DHT22;4060;49.186;9.226;2023-06-22T01:49:46;27.90;51.30
7254;DHT22;4060;49.186;9.226;2023-06-22T01:52:16;27.90;51.30
7254;DHT22;4060;49.186;9.226;2023-06-22T01:55:06;27.90;51.30
7254;DHT22;4060;49.186;9.226;2023-06-22T01:57:52;27.90;51.40
7254;DHT22;4060;49.186;9.226;2023-06-22T02:00:23;27.90;51.30
7254;DHT22;4060;49.186;9.226;2023-06-22T02:02:56;27.80;51.80
7254;DHT22;4060;49.186;9.226;2023-06-22T02:05:33;27.80;51.30
7254;DHT22;4060;49.186;9.226;2023-06-22T02:08:07;27.80;51.30
7254;DHT22;4060;49.186;9.226;2023-06-22T02:10:50;27.80;51.30
7254;DHT22;4060;49.186;9.226;2023-06-22T02:13:20;27.70;51.30
7254;DHT22;4060;49.186;9.226;2023-06-22T02:15:51;27.70;51.30
7254;DHT22;4060;49.186;9.226;2023-06-22T02:18:21;27.70;51.40
7254;DHT22;4060;49.186;9.226;2023-06-22T02:20:52;27.70;51.30
7254;DHT22;4060;49.186;9.226;2023-06-22T02:23:21;27.70;51.30
7254;DHT22;4060;49.186;9.226;2023-06-22T02:25:50;27.60;51.30
7254;DHT22;4060;49.186;9.226;2023-06-22T02:28:20;27.60;51.30
7254;DHT22;4060;49.186;9.226;2023-06-22T02:30:52;27.60;51.30
7254;DHT22;4060;49.186;9.226;2023-06-22T02:33:21;27.60;51.30
7254;DHT22;4060;49.186;9.226;2023-06-22T02:35:51;27.60;51.30
7254;DHT22;4060;49.186;9.226;2023-06-22T02:38:21;27.60;51.30
7254;DHT22;4060;49.186;9.226;2023-06-22T02:40:51;27.60;51.30
7254;DHT22;4060;49.186;9.226;2023-06-22T02:43:20;27.60;51.30
7254;DHT22;4060;49.186;9.226;2023-06-22T02:45:52;27.50;51.30
7254;DHT22;4060;49.186;9.226;2023-06-22T02:48:21;27.50;51.30
7254;DHT22;4060;49.186;9.226;2023-06-22T02:50:50;27.50;51.30
7254;DHT22;4060;49.186;9.226;2023-06-22T02:53:20;27.50;51.40
7254;DHT22;4060;49.186;9.226;2023-06-22T02:55:49;27.50;51.40
7254;DHT22;4060;49.186;9.226;2023-06-22T02:58:36;27.50;51.40
7254;DHT22;4060;49.186;9.226;2023-06-22T03:01:24;27.50;51.50
7254;DHT22;4060;49.186;9.226;2023-06-22T03:03:55;27.40;51.50
7254;DHT22;4060;49.186;9.226;2023-06-22T03:06:24;27.40;51.50
7254;DHT22;4060;49.186;9.226;2023-06-22T03:08:59;27.40;51.50
7254;DHT22;4060;49.186;9.226;2023-06-22T03:11:31;27.40;51.60
7254;DHT22;4060;49.186;9.226;2023-06-22T03:14:02;27.40;51.60
7254;DHT22;4060;49.186;9.226;2023-06-22T03:16:33;27.30;51.60
7254;DHT22;4060;49.186;9.226;2023-06-22T03:19:03;27.30;51.70
7254;DHT22;4060;49.186;9.226;2023-06-22T03:21:33;27.30;51.70
7254;DHT22;4060;49.186;9.226;2023-06-22T03:24:02;27.30;51.80
7254;DHT22;4060;49.186;9.226;2023-06-22T03:26:32;27.30;51.70
7254;DHT22;4060;49.186;9.226;2023-06-22T03:29:01;27.30;51.80
7254;DHT22;4060;49.186;9.226;2023-06-22T03:31:33;27.30;51.90
7254;DHT22;4060;49.186;9.226;2023-06-22T03:34:02;27.30;51.90
7254;DHT22;4060;49.186;9.226;2023-06-22T03:36:32;27.20;51.80
7254;DHT22;4060;49.186;9.226;2023-06-22T03:39:01;27.20;51.90
7254;DHT22;4060;49.186;9.226;2023-06-22T03:41:31;27.20;51.90
7254;DHT22;4060;49.186;9.226;2023-06-22T03:44:00;27.20;51.90
7254;DHT22;4060;49.186;9.226;2023-06-22T03:46:29;27.20;51.90
7254;DHT22;4060;49.186;9.226;2023-06-22T03:49:00;27.20;51.90
7254;DHT22;4060;49.186;9.226;2023-06-22T03:51:30;27.10;52.00
7254;DHT22;4060;49.186;9.226;2023-06-22T03:54:00;27.10;52.00
7254;DHT22;4060;49.186;9.226;2023-06-22T03:56:29;27.10;52.00
7254;DHT22;4060;49.186;9.226;2023-06-22T03:58:59;27.10;52.00
7254;DHT22;4060;49.186;9.226;2023-06-22T04:01:28;27.10;52.00
7254;DHT22;4060;49.186;9.226;2023-06-22T04:03:59;27.10;52.10
7254;DHT22;4060;49.186;9.226;2023-06-22T04:06:28;27.10;52.10
7254;DHT22;4060;49.186;9.226;2023-06-22T04:08:57;27.00;52.00
7254;DHT22;4060;49.186;9.226;2023-06-22T04:11:27;27.00;52.00
7254;DHT22;4060;49.186;9.226;2023-06-22T04:13:57;27.00;52.10
7254;DHT22;4060;49.186;9.226;2023-06-22T04:16:26;27.00;52.70
7254;DHT22;4060;49.186;9.226;2023-06-22T04:18:55;27.00;52.20
7254;DHT22;4060;49.186;9.226;2023-06-22T04:21:26;27.00;52.20
7254;DHT22;4060;49.186;9.226;2023-06-22T04:23:55;27.00;52.20
7254;DHT22;4060;49.186;9.226;2023-06-22T04:26:25;27.00;52.20
7254;DHT22;4060;49.186;9.226;2023-06-22T04:28:54;27.00;52.20
7254;DHT22;4060;49.186;9.226;2023-06-22T04:31:23;26.90;52.20
7254;DHT22;4060;49.186;9.226;2023-06-22T04:33:54;27.00;52.30
7254;DHT22;4060;49.186;9.226;2023-06-22T04:36:25;26.90;52.30
7254;DHT22;4060;49.186;9.226;2023-06-22T04:38:58;26.90;52.30
7254;DHT22;4060;49.186;9.226;2023-06-22T04:41:28;26.90;52.40
7254;DHT22;4060;49.186;9.226;2023-06-22T04:44:04;26.90;52.40
7254;DHT22;4060;49.186;9.226;2023-06-22T04:46:34;26.90;52.50
7254;DHT22;4060;49.186;9.226;2023-06-22T04:49:06;26.90;52.60
7254;DHT22;4060;49.186;9.226;2023-06-22T04:51:40;26.90;52.70
7254;DHT22;4060;49.186;9.226;2023-06-22T04:54:10;26.90;52.80
7254;DHT22;4060;49.186;9.226;2023-06-22T04:56:39;26.90;52.80
7254;DHT22;4060;49.186;9.226;2023-06-22T04:59:10;26.90;52.90
7254;DHT22;4060;49.186;9.226;2023-06-22T05:01:40;26.80;52.90
7254;DHT22;4060;49.186;9.226;2023-06-22T05:04:09;26.90;53.00
7254;DHT22;4060;49.186;9.226;2023-06-22T05:06:40;26.80;53.00
7254;DHT22;4060;49.186;9.226;2023-06-22T05:09:09;26.90;53.00
7254;DHT22;4060;49.186;9.226;2023-06-22T05:11:39;26.90;53.00
7254;DHT22;4060;49.186;9.226;2023-06-22T05:14:08;26.90;53.00
7254;DHT22;4060;49.186;9.226;2023-06-22T05:16:37;26.90;53.10
7254;DHT22;4060;49.186;9.226;2023-06-22T05:19:07;26.90;53.10
7254;DHT22;4060;49.186;9.226;2023-06-22T05:21:36;26.90;53.20
7254;DHT22;4060;49.186;9.226;2023-06-22T05:24:07;26.90;53.30
7254;DHT22;4060;49.186;9.226;2023-06-22T05:26:37;26.90;53.40
7254;DHT22;4060;49.186;9.226;2023-06-22T05:29:07;26.90;53.50
7254;DHT22;4060;49.186;9.226;2023-06-22T05:31:36;27.00;53.60
7254;DHT22;4060;49.186;9.226;2023-06-22T05:34:07;27.00;53.70
7254;DHT22;4060;49.186;9.226;2023-06-22T05:36:36;27.00;53.80
7254;DHT22;4060;49.186;9.226;2023-06-22T05:39:14;27.00;53.90
7254;DHT22;4060;49.186;9.226;2023-06-22T05:41:46;27.00;54.00
7254;DHT22;4060;49.186;9.226;2023-06-22T05:44:15;27.00;54.00
7254;DHT22;4060;49.186;9.226;2023-06-22T05:46:45;27.00;54.10
7254;DHT22;4060;49.186;9.226;2023-06-22T05:49:15;27.10;54.20
7254;DHT22;4060;49.186;9.226;2023-06-22T05:51:45;27.10;54.30
7254;DHT22;4060;49.186;9.226;2023-06-22T05:54:16;27.10;54.40
7254;DHT22;4060;49.186;9.226;2023-06-22T05:56:46;27.10;54.50
7254;DHT22;4060;49.186;9.226;2023-06-22T05:59:15;27.10;54.50
7254;DHT22;4060;49.186;9.226;2023-06-22T06:01:45;27.20;54.60
7254;DHT22;4060;49.186;9.226;2023-06-22T06:04:17;27.20;54.70
7254;DHT22;4060;49.186;9.226;2023-06-22T06:06:46;27.20;54.70
7254;DHT22;4060;49.186;9.226;2023-06-22T06:09:17;27.30;54.80
7254;DHT22;4060;49.186;9.226;2023-06-22T06:11:47;27.30;54.90
7254;DHT22;4060;49.186;9.226;2023-06-22T06:14:17;27.30;54.90
7254;DHT22;4060;49.186;9.226;2023-06-22T06:16:48;27.30;54.90
7254;DHT22;4060;49.186;9.226;2023-06-22T06:19:18;27.30;54.90
7254;DHT22;4060;49.186;9.226;2023-06-22T06:21:48;27.30;54.90
7254;DHT22;4060;49.186;9.226;2023-06-22T06:24:21;27.40;54.90
7254;DHT22;4060;49.186;9.226;2023-06-22T06:26:50;27.40;55.00
7254;DHT22;4060;49.186;9.226;2023-06-22T06:29:20;27.40;54.90
7254;DHT22;4060;49.186;9.226;2023-06-22T06:31:50;27.50;55.00
7254;DHT22;4060;49.186;9.226;2023-06-22T06:34:21;27.50;55.00
7254;DHT22;4060;49.186;9.226;2023-06-22T06:36:50;27.50;54.90
7254;DHT22;4060;49.186;9.226;2023-06-22T06:39:21;27.50;54.90
7254;DHT22;4060;49.186;9.226;2023-06-22T06:41:51;27.60;54.90
7254;DHT22;4060;49.186;9.226;2023-06-22T06:44:21;27.60;55.00
7254;DHT22;4060;49.186;9.226;2023-06-22T06:46:50;27.60;54.90
7254;DHT22;4060;49.186;9.226;2023-06-22T06:49:21;27.70;55.00
7254;DHT22;4060;49.186;9.226;2023-06-22T06:51:51;27.70;55.00
7254;DHT22;4060;49.186;9.226;2023-06-22T06:54:22;27.70;55.10
7254;DHT22;4060;49.186;9.226;2023-06-22T06:56:51;27.70;55.00
7254;DHT22;4060;49.186;9.226;2023-06-22T06:59:21;27.80;55.10
7254;DHT22;4060;49.186;9.226;2023-06-22T07:01:50;27.80;55.00
7254;DHT22;4060;49.186;9.226;2023-06-22T07:04:20;27.80;55.00
7254;DHT22;4060;49.186;9.226;2023-06-22T07:06:49;27.90;55.00
7254;DHT22;4060;49.186;9.226;2023-06-22T07:09:18;27.90;54.90
7254;DHT22;4060;49.186;9.226;2023-06-22T07:11:50;28.00;54.90
7254;DHT22;4060;49.186;9.226;2023-06-22T07:14:19;28.00;54.80
7254;DHT22;4060;49.186;9.226;2023-06-22T07:16:48;28.00;54.60
7254;DHT22;4060;49.186;9.226;2023-06-22T07:19:25;28.10;54.60
7254;DHT22;4060;49.186;9.226;2023-06-22T07:21:55;28.10;54.50
7254;DHT22;4060;49.186;9.226;2023-06-22T07:24:25;28.20;54.40
7254;DHT22;4060;49.186;9.226;2023-06-22T07:26:56;28.20;54.10
7254;DHT22;4060;49.186;9.226;2023-06-22T07:29:26;28.20;54.00
7254;DHT22;4060;49.186;9.226;2023-06-22T07:31:56;28.30;54.30
7254;DHT22;4060;49.186;9.226;2023-06-22T07:34:26;28.30;53.50
7254;DHT22;4060;49.186;9.226;2023-06-22T07:36:57;28.30;53.20
7254;DHT22;4060;49.186;9.226;2023-06-22T07:39:27;28.40;52.90
7254;DHT22;4060;49.186;9.226;2023-06-22T07:41:58;28.40;52.60
7254;DHT22;4060;49.186;9.226;2023-06-22T07:44:27;28.40;52.40
7254;DHT22;4060;49.186;9.226;2023-06-22T07:46:56;28.40;52.30
7254;DHT22;4060;49.186;9.226;2023-06-22T07:49:27;28.40;52.10
7254;DHT22;4060;49.186;9.226;2023-06-22T07:51:57;28.50;52.10
7254;DHT22;4060;49.186;9.226;2023-06-22T07:54:26;28.50;51.90
7254;DHT22;4060;49.186;9.226;2023-06-22T07:56:58;28.60;52.00
7254;DHT22;4060;49.186;9.226;2023-06-22T07:59:27;28.60;51.90
7254;DHT22;4060;49.186;9.226;2023-06-22T08:01:57;28.60;51.90
7254;DHT22;4060;49.186;9.226;2023-06-22T08:04:27;28.60;51.90
7254;DHT22;4060;49.186;9.226;2023-06-22T08:06:57;28.70;51.80
7254;DHT22;4060;49.186;9.226;2023-06-22T08:09:28;28.70;51.70
7254;DHT22;4060;49.186;9.226;2023-06-22T08:11:59;28.80;51.80
7254;DHT22;4060;49.186;9.226;2023-06-22T08:14:30;28.80;51.60
7254;DHT22;4060;49.186;9.226;2023-06-22T08:17:03;28.80;51.50
7254;DHT22;4060;49.186;9.226;2023-06-22T08:19:34;28.90;51.40
7254;DHT22;4060;49.186;9.226;2023-06-22T08:22:03;28.90;51.30
7254;DHT22;4060;49.186;9.226;2023-06-22T08:24:33;28.90;51.20
7254;DHT22;4060;49.186;9.226;2023-06-22T08:27:09;29.00;51.20
7254;DHT22;4060;49.186;9.226;2023-06-22T08:29:40;29.00;51.10
7254;DHT22;4060;49.186;9.226;2023-06-22T08:32:10;29.00;50.90
7254;DHT22;4060;49.186;9.226;2023-06-22T08:34:39;29.10;50.80
7254;DHT22;4060;49.186;9.226;2023-06-22T08:37:10;29.20;50.80
7254;DHT22;4060;49.186;9.226;2023-06-22T08:39:39;29.20;50.50
7254;DHT22;4060;49.186;9.226;2023-06-22T08:42:12;29.20;50.20
7254;DHT22;4060;49.186;9.226;2023-06-22T08:44:42;29.30;50.00
7254;DHT22;4060;49.186;9.226;2023-06-22T08:47:12;29.30;49.90
7254;DHT22;4060;49.186;9.226;2023-06-22T08:49:41;29.30;49.70
7254;DHT22;4060;49.186;9.226;2023-06-22T08:52:11;29.30;49.60
7254;DHT22;4060;49.186;9.226;2023-06-22T08:54:40;29.40;49.40
7254;DHT22;4060;49.186;9.226;2023-06-22T08:57:11;29.40;49.20
7254;DHT22;4060;49.186;9.226;2023-06-22T08:59:41;29.40;49.00
7254;DHT22;4060;49.186;9.226;2023-06-22T09:02:10;29.40;48.90
7254;DHT22;4060;49.186;9.226;2023-06-22T09:04:39;29.40;48.80
7254;DHT22;4060;49.186;9.226;2023-06-22T09:07:08;29.50;48.80
7254;DHT22;4060;49.186;9.226;2023-06-22T09:09:38;29.50;48.60
7254;DHT22;4060;49.186;9.226;2023-06-22T09:12:11;29.60;48.60
7254;DHT22;4060;49.186;9.226;2023-06-22T09:14:41;29.60;48.40
7254;DHT22;4060;49.186;9.226;2023-06-22T09:17:10;29.60;48.30
7254;DHT22;4060;49.186;9.226;2023-06-22T09:19:52;29.70;48.20
7254;DHT22;4060;49.186;9.226;2023-06-22T09:22:22;29.70;47.90
7254;DHT22;4060;49.186;9.226;2023-06-22T09:24:56;29.70;47.90
7254;DHT22;4060;49.186;9.226;2023-06-22T09:27:26;29.70;47.90
7254;DHT22;4060;49.186;9.226;2023-06-22T09:29:56;29.70;47.90
7254;DHT22;4060;49.186;9.226;2023-06-22T09:32:26;29.70;47.80
7254;DHT22;4060;49.186;9.226;2023-06-22T09:34:55;29.70;47.70
7254;DHT22;4060;49.186;9.226;2023-06-22T09:37:24;29.70;47.60
7254;DHT22;4060;49.186;9.226;2023-06-22T09:39:53;29.80;47.70
7254;DHT22;4060;49.186;9.226;2023-06-22T09:42:22;29.80;47.60
7254;DHT22;4060;49.186;9.226;2023-06-22T09:44:53;29.80;48.10
7254;DHT22;4060;49.186;9.226;2023-06-22T09:47:23;29.80;47.40
7254;DHT22;4060;49.186;9.226;2023-06-22T09:49:52;29.90;47.40
7254;DHT22;4060;49.186;9.226;2023-06-22T09:52:22;29.90;47.30
7254;DHT22;4060;49.186;9.226;2023-06-22T09:54:52;29.90;47.20
7254;DHT22;4060;49.186;9.226;2023-06-22T09:57:21;29.90;47.20
7254;DHT22;4060;49.186;9.226;2023-06-22T09:59:52;29.90;47.10
7254;DHT22;4060;49.186;9.226;2023-06-22T10:02:22;30.00;47.10
7254;DHT22;4060;49.186;9.226;2023-06-22T10:04:52;30.00;47.10
7254;DHT22;4060;49.186;9.226;2023-06-22T10:07:21;30.00;47.00
7254;DHT22;4060;49.186;9.226;2023-06-22T10:09:51;30.00;47.00
7254;DHT22;4060;49.186;9.226;2023-06-22T10:12:21;30.00;47.00
7254;DHT22;4060;49.186;9.226;2023-06-22T10:14:50;30.10;47.10
7254;DHT22;4060;49.186;9.226;2023-06-22T10:17:21;30.10;47.10
7254;DHT22;4060;49.186;9.226;2023-06-22T10:19:50;30.10;47.00
7254;DHT22;4060;49.186;9.226;2023-06-22T10:22:19;30.20;47.00
7254;DHT22;4060;49.186;9.226;2023-06-22T10:24:49;30.20;46.90
7254;DHT22;4060;49.186;9.226;2023-06-22T10:27:19;30.20;46.80
7254;DHT22;4060;49.186;9.226;2023-06-22T10:29:49;30.30;46.80
7254;DHT22;4060;49.186;9.226;2023-06-22T10:32:20;30.30;46.70
7254;DHT22;4060;49.186;9.226;2023-06-22T10:34:49;30.30;46.60
7254;DHT22;4060;49.186;9.226;2023-06-22T10:37:24;30.40;46.60
7254;DHT22;4060;49.186;9.226;2023-06-22T10:40:03;30.40;46.60
7254;DHT22;4060;49.186;9.226;2023-06-22T10:42:33;30.40;46.50
7254;DHT22;4060;49.186;9.226;2023-06-22T10:45:03;30.50;46.40
7254;DHT22;4060;49.186;9.226;2023-06-22T10:47:34;30.50;46.30
7254;DHT22;4060;49.186;9.226;2023-06-22T10:50:05;30.50;46.20
7254;DHT22;4060;49.186;9.226;2023-06-22T10:52:34;30.60;46.30
7254;DHT22;4060;49.186;9.226;2023-06-22T10:55:04;30.60;46.20
7254;DHT22;4060;49.186;9.226;2023-06-22T10:57:33;30.60;46.10
7254;DHT22;4060;49.186;9.226;2023-06-22T11:00:04;30.60;46.10
7254;DHT22;4060;49.186;9.226;2023-06-22T11:02:36;30.60;46.00
7254;DHT22;4060;49.186;9.226;2023-06-22T11:05:06;30.60;46.00
7254;DHT22;4060;49.186;9.226;2023-06-22T11:07:36;30.70;46.10
7254;DHT22;4060;49.186;9.226;2023-06-22T11:10:06;30.70;46.00
7254;DHT22;4060;49.186;9.226;2023-06-22T11:12:36;30.80;46.10
7254;DHT22;4060;49.186;9.226;2023-06-22T11:15:06;30.80;46.00
7254;DHT22;4060;49.186;9.226;2023-06-22T11:17:37;30.80;45.80
7254;DHT22;4060;49.186;9.226;2023-06-22T11:20:07;30.80;45.80
7254;DHT22;4060;49.186;9.226;2023-06-22T11:22:38;30.80;45.80
7254;DHT22;4060;49.186;9.226;2023-06-22T11:25:08;30.90;45.80
7254;DHT22;4060;49.186;9.226;2023-06-22T11:27:38;30.90;45.70
7254;DHT22;4060;49.186;9.226;2023-06-22T11:30:10;31.00;45.60
7254;DHT22;4060;49.186;9.226;2023-06-22T11:32:41;31.00;45.60
7254;DHT22;4060;49.186;9.226;2023-06-22T11:35:10;31.00;45.50
7254;DHT22;4060;49.186;9.226;2023-06-22T11:37:39;31.00;45.50
7254;DHT22;4060;49.186;9.226;2023-06-22T11:40:10;31.00;45.40
7254;DHT22;4060;49.186;9.226;2023-06-22T11:42:40;31.10;45.40
7254;DHT22;4060;49.186;9.226;2023-06-22T11:45:10;31.10;45.40
7254;DHT22;4060;49.186;9.226;2023-06-22T11:47:42;31.10;45.20
7254;DHT22;4060;49.186;9.226;2023-06-22T11:50:11;31.20;45.20
7254;DHT22;4060;49.186;9.226;2023-06-22T11:52:40;31.20;45.10
7254;DHT22;4060;49.186;9.226;2023-06-22T11:55:10;31.20;45.10
7254;DHT22;4060;49.186;9.226;2023-06-22T11:57:55;31.30;45.10
7254;DHT22;4060;49.186;9.226;2023-06-22T12:00:27;31.30;45.00
7254;DHT22;4060;49.186;9.226;2023-06-22T12:02:58;31.30;45.00
7254;DHT22;4060;49.186;9.226;2023-06-22T12:05:28;31.30;44.90
7254;DHT22;4060;49.186;9.226;2023-06-22T12:07:57;31.40;44.80
7254;DHT22;4060;49.186;9.226;2023-06-22T12:10:27;31.40;44.70
7254;DHT22;4060;49.186;9.226;2023-06-22T12:12:58;31.40;44.70
7254;DHT22;4060;49.186;9.226;2023-06-22T12:15:28;31.40;44.60
7254;DHT22;4060;49.186;9.226;2023-06-22T12:18:04;31.40;44.60
7254;DHT22;4060;49.186;9.226;2023-06-22T12:20:33;31.40;44.60
7254;DHT22;4060;49.186;9.226;2023-06-22T12:23:03;31.50;44.60
7254;DHT22;4060;49.186;9.226;2023-06-22T12:25:33;31.50;44.60
7254;DHT22;4060;49.186;9.226;2023-06-22T12:28:02;31.50;44.50
7254;DHT22;4060;49.186;9.226;2023-06-22T12:30:33;31.50;44.50
7254;DHT22;4060;49.186;9.226;2023-06-22T12:33:05;31.60;44.50
7254;DHT22;4060;49.186;9.226;2023-06-22T12:35:35;31.50;44.40
7254;DHT22;4060;49.186;9.226;2023-06-22T12:38:04;31.60;44.50
7254;DHT22;4060;49.186;9.226;2023-06-22T12:40:35;31.60;44.40
7254;DHT22;4060;49.186;9.226;2023-06-22T12:43:04;31.60;44.30
7254;DHT22;4060;49.186;9.226;2023-06-22T12:45:35;31.60;44.30
7254;DHT22;4060;49.186;9.226;2023-06-22T12:48:06;31.60;44.40
7254;DHT22;4060;49.186;9.226;2023-06-22T12:50:35;31.70;44.60
7254;DHT22;4060;49.186;9.226;2023-06-22T12:53:05;31.60;44.50
7254;DHT22;4060;49.186;9.226;2023-06-22T12:55:34;31.70;44.60
7254;DHT22;4060;49.186;9.226;2023-06-22T12:58:03;31.70;44.60
7254;DHT22;4060;49.186;9.226;2023-06-22T13:00:32;31.70;44.50
7254;DHT22;4060;49.186;9.226;2023-06-22T13:03:01;31.70;44.50
7254;DHT22;4060;49.186;9.226;2023-06-22T13:05:32;31.80;44.50
7254;DHT22;4060;49.186;9.226;2023-06-22T13:08:01;31.80;45.00
7254;DHT22;4060;49.186;9.226;2023-06-22T13:10:31;31.80;44.50
7254;DHT22;4060;49.186;9.226;2023-06-22T13:13:00;31.80;44.50
7254;DHT22;4060;49.186;9.226;2023-06-22T13:15:29;31.80;44.40
7254;DHT22;4060;49.186;9.226;2023-06-22T13:17:58;31.80;44.40
7254;DHT22;4060;49.186;9.226;2023-06-22T13:20:31;31.90;44.50
7254;DHT22;4060;49.186;9.226;2023-06-22T13:23:00;31.90;44.60
7254;DHT22;4060;49.186;9.226;2023-06-22T13:25:30;31.90;44.60
7254;DHT22;4060;49.186;9.226;2023-06-22T13:27:59;31.90;44.40
7254;DHT22;4060;49.186;9.226;2023-06-22T13:30:29;31.90;43.80
7254;DHT22;4060;49.186;9.226;2023-06-22T13:32:59;31.90;43.60
7254;DHT22;4060;49.186;9.226;2023-06-22T13:35:28;31.90;43.20
7254;DHT22;4060;49.186;9.226;2023-06-22T13:38:00;31.90;42.70
7254;DHT22;4060;49.186;9.226;2023-06-22T13:40:29;32.00;42.70
7254;DHT22;4060;49.186;9.226;2023-06-22T13:42:59;31.90;42.80
7254;DHT22;4060;49.186;9.226;2023-06-22T13:45:28;32.00;42.70
7254;DHT22;4060;49.186;9.226;2023-06-22T13:47:58;32.00;42.70
7254;DHT22;4060;49.186;9.226;2023-06-22T13:50:27;32.00;42.60
7254;DHT22;4060;49.186;9.226;2023-06-22T13:52:59;32.00;42.50
7254;DHT22;4060;49.186;9.226;2023-06-22T13:55:28;32.10;42.50
7254;DHT22;4060;49.186;9.226;2023-06-22T13:57:58;32.00;42.50
7254;DHT22;4060;49.186;9.226;2023-06-22T14:00:27;32.10;42.60
7254;DHT22;4060;49.186;9.226;2023-06-22T14:02:57;32.10;42.60
7254;DHT22;4060;49.186;9.226;2023-06-22T14:05:26;32.10;42.80
7254;DHT22;4060;49.186;9.226;2023-06-22T14:07:55;32.10;42.90
7254;DHT22;4060;49.186;9.226;2023-06-22T14:10:27;32.10;43.00
7254;DHT22;4060;49.186;9.226;2023-06-22T14:12:57;32.20;43.20
7254;DHT22;4060;49.186;9.226;2023-06-22T14:15:27;32.20;43.20
7254;DHT22;4060;49.186;9.226;2023-06-22T14:17:56;32.20;43.20
7254;DHT22;4060;49.186;9.226;2023-06-22T14:20:26;32.20;43.20
7254;DHT22;4060;49.186;9.226;2023-06-22T14:22:55;32.30;43.40
7254;DHT22;4060;49.186;9.226;2023-06-22T14:25:27;32.30;43.40
7254;DHT22;4060;49.186;9.226;2023-06-22T14:27:56;32.30;43.30
7254;DHT22;4060;49.186;9.226;2023-06-22T14:30:26;32.30;43.30
7254;DHT22;4060;49.186;9.226;2023-06-22T14:32:55;32.40;43.30
7254;DHT22;4060;49.186;9.226;2023-06-22T14:35:26;32.30;43.20
7254;DHT22;4060;49.186;9.226;2023-06-22T14:37:55;32.40;43.10
7254;DHT22;4060;49.186;9.226;2023-06-22T14:40:26;32.40;43.10
7254;DHT22;4060;49.186;9.226;2023-06-22T14:42:56;32.40;43.10
7254;DHT22;4060;49.186;9.226;2023-06-22T14:45:25;32.50;43.10
7254;DHT22;4060;49.186;9.226;2023-06-22T14:47:55;32.50;43.10
7254;DHT22;4060;49.186;9.226;2023-06-22T14:50:24;32.50;43.10
7254;DHT22;4060;49.186;9.226;2023-06-22T14:52:54;32.50;43.00
7254;DHT22;4060;49.186;9.226;2023-06-22T14:55:23;32.50;42.80
7254;DHT22;4060;49.186;9.226;2023-06-22T14:57:55;32.50;42.60
7254;DHT22;4060;49.186;9.226;2023-06-22T15:00:24;32.50;42.50
7254;DHT22;4060;49.186;9.226;2023-06-22T15:02:53;32.60;42.50
7254;DHT22;4060;49.186;9.226;2023-06-22T15:05:23;32.60;42.30
7254;DHT22;4060;49.186;9.226;2023-06-22T15:07:52;32.60;42.20
7254;DHT22;4060;49.186;9.226;2023-06-22T15:10:22;32.60;42.10
7254;DHT22;4060;49.186;9.226;2023-06-22T15:12:53;32.70;42.10
7254;DHT22;4060;49.186;9.226;2023-06-22T15:15:23;32.60;41.90
7254;DHT22;4060;49.186;9.226;2023-06-22T15:17:52;32.70;42.00
7254;DHT22;4060;49.186;9.226;2023-06-22T15:20:21;32.70;42.00
7254;DHT22;4060;49.186;9.226;2023-06-22T15:22:51;32.70;41.90
7254;DHT22;4060;49.186;9.226;2023-06-22T15:25:22;32.70;41.90
7254;DHT22;4060;49.186;9.226;2023-06-22T15:27:53;32.80;41.90
7254;DHT22;4060;49.186;9.226;2023-06-22T15:30:22;32.70;41.70
7254;DHT22;4060;49.186;9.226;2023-06-22T15:32:51;32.80;41.80
7254;DHT22;4060;49.186;9.226;2023-06-22T15:35:21;32.80;41.80
7254;DHT22;4060;49.186;9.226;2023-06-22T15:37:50;32.80;41.80
7254;DHT22;4060;49.186;9.226;2023-06-22T15:40:20;32.80;41.80
7254;DHT22;4060;49.186;9.226;2023-06-22T15:42:50;32.80;41.90
7254;DHT22;4060;49.186;9.226;2023-06-22T15:45:22;32.80;42.00
7254;DHT22;4060;49.186;9.226;2023-06-22T15:47:52;32.80;42.10
7254;DHT22;4060;49.186;9.226;2023-06-22T15:50:21;32.80;42.10
7254;DHT22;4060;49.186;9.226;2023-06-22T15:52:50;32.80;42.10
7254;DHT22;4060;49.186;9.226;2023-06-22T15:55:20;32.80;42.20
7254;DHT22;4060;49.186;9.226;2023-06-22T15:57:49;32.90;42.40
7254;DHT22;4060;49.186;9.226;2023-06-22T16:00:23;32.90;42.30
7254;DHT22;4060;49.186;9.226;2023-06-22T16:02:52;32.90;42.40
7254;DHT22;4060;49.186;9.226;2023-06-22T16:05:21;32.90;42.40
7254;DHT22;4060;49.186;9.226;2023-06-22T16:07:54;32.90;42.40
7254;DHT22;4060;49.186;9.226;2023-06-22T16:10:25;32.90;42.40
7254;DHT22;4060;49.186;9.226;2023-06-22T16:12:54;32.90;42.40
7254;DHT22;4060;49.186;9.226;2023-06-22T16:15:26;33.00;42.50
7254;DHT22;4060;49.186;9.226;2023-06-22T16:17:55;32.90;42.40
7254;DHT22;4060;49.186;9.226;2023-06-22T16:20:24;33.00;42.50
7254;DHT22;4060;49.186;9.226;2023-06-22T16:22:54;33.00;42.50